createdAt,value
2023-04-10T15:36:20.913Z,101487.00
2023-04-10T15:38:53.052Z,101494.00
2023-04-10T15:41:25.032Z,101489.00
2023-04-10T15:43:57.353Z,101487.00
2023-04-10T15:46:33.583Z,101473.00
2023-04-10T15:49:05.710Z,101464.00
2023-04-10T15:51:37.769Z,101466.00
2023-04-10T15:54:10.377Z,101456.00
2023-04-10T15:56:43.027Z,101458.00
2023-04-10T15:59:15.403Z,101457.00
2023-04-10T16:01:46.961Z,101449.00
2023-04-10T16:04:19.035Z,101455.00
2023-04-10T16:06:51.246Z,101462.00
2023-04-10T16:09:26.061Z,101449.00
2023-04-10T16:13:12.699Z,101443.00
2023-04-10T16:15:44.925Z,101444.00
2023-04-10T16:18:17.507Z,101437.00
2023-04-10T16:20:49.331Z,101423.00
2023-04-10T16:23:21.141Z,101423.00
2023-04-10T16:25:52.371Z,101424.00
2023-04-10T16:28:24.193Z,101416.00
2023-04-10T16:30:55.681Z,101421.00
2023-04-10T16:33:27.793Z,101412.00
2023-04-10T16:35:59.154Z,101414.00
2023-04-10T16:38:31.703Z,101409.00
2023-04-10T16:41:08.044Z,101398.00
2023-04-10T16:43:39.398Z,101392.00
2023-04-10T16:46:10.793Z,101399.00
2023-04-10T16:48:42.122Z,101398.00
2023-04-10T16:51:20.200Z,101392.00
2023-04-10T16:53:52.690Z,101382.00
2023-04-10T16:56:24.775Z,101381.00
2023-04-10T16:58:58.326Z,101378.00
2023-04-10T17:01:30.350Z,101381.00
2023-04-10T17:04:02.688Z,101384.00
2023-04-10T17:06:35.092Z,101386.00
2023-04-10T17:09:07.524Z,101368.00
2023-04-10T17:11:40.382Z,101372.00
2023-04-10T17:14:14.681Z,101365.00
2023-04-10T17:16:46.884Z,101356.00
2023-04-10T17:19:18.629Z,101360.00
2023-04-10T17:21:50.282Z,101356.00
2023-04-10T17:24:22.716Z,101345.00
2023-04-10T17:26:55.127Z,101344.00
2023-04-10T17:29:27.311Z,101348.00
2023-04-10T17:31:59.615Z,101341.00
2023-04-10T17:34:30.936Z,101338.00
2023-04-10T17:37:03.713Z,101336.00
2023-04-10T17:39:35.065Z,101326.00
2023-04-10T17:42:08.357Z,101340.00
2023-04-10T17:44:40.851Z,101336.00
2023-04-10T17:47:13.383Z,101329.00
2023-04-10T17:49:45.640Z,101327.00
2023-04-10T17:52:17.854Z,101328.00
2023-04-10T17:54:49.885Z,101317.00
2023-04-10T17:57:22.605Z,101319.00
2023-04-10T17:59:54.536Z,101314.00
2023-04-10T18:02:26.555Z,101318.00
2023-04-10T18:04:59.156Z,101320.00
2023-04-10T18:07:31.375Z,101322.00
2023-04-10T18:10:03.444Z,101320.00
2023-04-10T18:12:36.457Z,101316.00
2023-04-10T18:15:09.505Z,101313.00
2023-04-10T18:17:41.849Z,101313.00
2023-04-10T18:20:13.759Z,101311.00
2023-04-10T18:22:46.019Z,101309.00
2023-04-10T18:25:19.468Z,101299.00
2023-04-10T18:28:13.028Z,101293.00
2023-04-10T18:30:45.513Z,101293.00
2023-04-10T18:33:21.655Z,101292.00
2023-04-10T18:35:57.004Z,101288.00
2023-04-10T18:38:28.833Z,101297.00
2023-04-10T18:41:00.410Z,101290.00
2023-04-10T18:43:32.016Z,101286.00
2023-04-10T18:46:03.948Z,101288.00
2023-04-10T18:48:45.301Z,101286.00
2023-04-10T18:51:16.573Z,101283.00
2023-04-10T18:53:48.008Z,101279.00
2023-04-10T18:56:39.395Z,101287.00
2023-04-10T18:59:10.261Z,101287.00
2023-04-10T19:01:42.344Z,101284.00
2023-04-10T19:04:14.276Z,101287.00
2023-04-10T19:06:47.248Z,101279.00
2023-04-10T19:09:18.340Z,101286.00
2023-04-10T19:11:49.222Z,101287.00
2023-04-10T19:14:21.110Z,101278.00
2023-04-10T19:16:53.652Z,101266.00
2023-04-10T19:19:25.787Z,101272.00
2023-04-10T19:21:56.934Z,101273.00
2023-04-10T19:24:28.229Z,101271.00
2023-04-10T19:26:59.641Z,101272.00
2023-04-10T19:29:31.497Z,101273.00
2023-04-10T19:32:02.274Z,101272.00
2023-04-10T19:34:33.536Z,101279.00
2023-04-10T19:37:05.574Z,101275.00
2023-04-10T19:39:36.816Z,101278.00
2023-04-10T19:42:08.133Z,101280.00
2023-04-10T19:44:39.445Z,101281.00
2023-04-10T19:47:10.271Z,101279.00
2023-04-10T19:49:41.300Z,101278.00
2023-04-10T19:52:12.925Z,101282.00
2023-04-10T19:54:44.361Z,101278.00
2023-04-10T19:57:16.551Z,101275.00
2023-04-10T19:59:47.797Z,101279.00
2023-04-10T20:02:19.472Z,101274.00
2023-04-10T20:04:50.366Z,101277.00
2023-04-10T20:07:21.902Z,101272.00
2023-04-10T20:09:53.333Z,101271.00
2023-04-10T20:12:25.195Z,101275.00
2023-04-10T20:14:56.857Z,101268.00
2023-04-10T20:17:29.545Z,101263.00
2023-04-10T20:20:01.669Z,101277.00
2023-04-10T20:22:34.293Z,101278.00
2023-04-10T20:25:06.037Z,101271.00
2023-04-10T20:27:37.988Z,101271.00
2023-04-10T20:30:10.981Z,101271.00
2023-04-10T20:32:42.745Z,101270.00
2023-04-10T20:35:14.594Z,101283.00
2023-04-10T20:37:46.176Z,101288.00
2023-04-10T20:40:19.396Z,101276.00
2023-04-10T20:42:51.305Z,101278.00
2023-04-10T20:45:23.569Z,101276.00
2023-04-10T20:47:55.289Z,101274.00
2023-04-10T20:50:26.822Z,101275.00
2023-04-10T20:52:58.711Z,101270.00
2023-04-10T20:55:30.507Z,101281.00
2023-04-10T20:58:02.581Z,101270.00
2023-04-10T21:00:34.272Z,101280.00
2023-04-10T21:03:06.340Z,101277.00
2023-04-10T21:05:42.833Z,101285.00
2023-04-10T21:08:16.113Z,101296.00
2023-04-10T21:10:48.029Z,101306.00
2023-04-10T21:13:20.414Z,101319.00
2023-04-10T21:15:52.980Z,101314.00
2023-04-10T21:18:25.848Z,101332.00
2023-04-10T21:20:57.938Z,101327.00
2023-04-10T21:23:30.301Z,101323.00
2023-04-10T21:26:03.118Z,101329.00
2023-04-10T21:28:36.051Z,101327.00
2023-04-10T21:31:07.513Z,101333.00
2023-04-10T21:33:39.647Z,101326.00
2023-04-10T21:36:11.170Z,101341.00
2023-04-10T21:38:43.246Z,101338.00
2023-04-10T21:41:16.645Z,101337.00
2023-04-10T21:43:49.802Z,101348.00
2023-04-10T21:46:21.820Z,101346.00
2023-04-10T21:48:54.352Z,101347.00
2023-04-10T21:51:27.348Z,101350.00
2023-04-10T21:53:59.350Z,101350.00
2023-04-10T21:56:31.334Z,101355.00
2023-04-10T21:59:04.241Z,101348.00
2023-04-10T22:01:35.840Z,101350.00
2023-04-10T22:04:09.025Z,101360.00
2023-04-10T22:06:41.300Z,101349.00
2023-04-10T22:09:14.510Z,101359.00
2023-04-10T22:11:46.588Z,101358.00
2023-04-10T22:14:21.305Z,101350.00
2023-04-10T22:16:53.166Z,101360.00
2023-04-10T22:19:26.556Z,101351.00
2023-04-10T22:21:59.356Z,101361.00
2023-04-10T22:24:31.379Z,101361.00
2023-04-10T22:27:04.348Z,101363.00
2023-04-10T22:29:37.638Z,101357.00
2023-04-10T22:32:08.928Z,101372.00
2023-04-10T22:34:41.135Z,101373.00
2023-04-10T22:37:13.277Z,101371.00
2023-04-10T22:39:45.333Z,101372.00
2023-04-10T22:42:18.007Z,101380.00
2023-04-10T22:44:50.146Z,101374.00
2023-04-10T22:47:23.033Z,101377.00
2023-04-10T22:49:55.187Z,101378.00
2023-04-10T22:52:27.305Z,101375.00
2023-04-10T22:55:00.582Z,101377.00
2023-04-10T22:57:31.994Z,101375.00
2023-04-10T23:00:05.577Z,101371.00
2023-04-10T23:02:37.889Z,101366.00
2023-04-10T23:05:10.845Z,101376.00
2023-04-10T23:07:43.034Z,101378.00
2023-04-10T23:10:16.232Z,101385.00
2023-04-10T23:12:49.000Z,101398.00
2023-04-10T23:15:21.107Z,101399.00
2023-04-10T23:17:53.152Z,101394.00
2023-04-10T23:20:25.155Z,101399.00
2023-04-10T23:23:00.662Z,101404.00
2023-04-10T23:25:32.282Z,101408.00
2023-04-10T23:28:05.046Z,101403.00
2023-04-10T23:30:38.857Z,101402.00
2023-04-10T23:33:10.075Z,101406.00
2023-04-10T23:35:41.975Z,101416.00
2023-04-10T23:38:13.751Z,101420.00
2023-04-10T23:40:45.977Z,101417.00
2023-04-10T23:43:18.336Z,101418.00
2023-04-10T23:45:50.419Z,101415.00
2023-04-10T23:48:22.543Z,101421.00
2023-04-10T23:51:03.617Z,101420.00
2023-04-10T23:53:36.399Z,101419.00
2023-04-10T23:56:09.004Z,101420.00
2023-04-10T23:58:41.115Z,101421.00
